Time;durP1;ratioP1;P1;durP2;ratioP2;P2;SDS_P1;SDS_P2;PMS_P1;PMS_P2;Temp;Humidity;BMP_temperature;BMP_pressure;BME280_temperature;BME280_humidity;BME280_pressure;Samples;Min_cycle;Max_cycle;Signal;HPM_P1;HPM_P2
2021/06/29 08:31:38;;;;;;;;;;;;;;;;;;;;;
2021/06/29 14:48:22;;;;;;;;;;;;;;;;;;;;;
2021/06/29 14:51:28;;;;;;;;;;;;;;;;;;;;;
2021/06/29 14:58:59;;;;;;;;;;;;;;;;;;;;;
2021/06/29 15:59:44;;;;;;;;;;;;;;;;;;;;;
2021/06/29 16:05:38;;;;;;;;;;;;;;;;;;;;;
2021/06/29 16:38:22;;;;;;;;;;;;;;;;;;;;;
2021/06/29 16:44:46;;;;;;;;;;;;;;;;;;;;;
2021/06/29 16:48:10;;;;;;;;;;;;;;;;;;;;;
2021/06/29 16:51:26;;;;;;;;;;;;;;;;;;;;;
2021/06/29 16:53:55;;;;;;;;;4.00;4.00;;;;;18.35;69.08;101029.44;6140878;23;68148;-95
2021/06/29 17:18:39;;;;;;;;;;;;;;;;;;;;;
2021/06/29 17:21:16;;;;;;;;;5.00;5.00;;;;;17.84;73.97;101035.81;5872856;23;69286;-95
2021/06/29 17:24:32;;;;;;;;;;;;;;;;;;;;;
2021/06/29 17:27:36;;;;;;;;;;;;;;;;;;;;;
2021/06/29 17:30:21;;;;;;;;;4.50;3.75;;;;;18.11;75.15;101117.66;5874054;24;72353;-94
2021/06/29 17:32:47;;;;;;;;;3.75;3.50;;;;;18.00;74.81;101105.94;5852694;24;45341;-94
2021/06/29 17:35:50;;;;;;;;;6.50;5.00;;;;;17.99;74.95;101103.38;5845117;24;45458;-94
2021/06/29 17:38:30;;;;;;;;;5.75;4.75;;;;;18.05;75.07;101113.66;5924325;24;47961;-93
2021/06/29 17:41:01;;;;;;;;;7.00;6.00;;;;;17.94;75.59;101097.44;5966474;23;45242;-94
2021/06/29 17:43:42;;;;;;;;;5.25;5.25;;;;;17.53;75.69;101035.00;5991597;23;45305;-93
2021/06/29 17:46:55;;;;;;;;;6.00;4.50;;;;;17.49;75.57;101029.00;5991266;23;45305;-94
2021/06/29 17:49:45;;;;;;;;;2.50;2.50;;;;;18.11;75.83;101147.56;6134926;23;45533;-94
2021/06/29 17:52:32;;;;;;;;;6.00;3.00;;;;;18.01;75.62;101125.81;6135441;23;45218;-95
2021/06/29 17:55:01;;;;;;;;;2.50;2.50;;;;;17.51;75.01;101056.88;6202642;22;45372;-93
2021/06/29 17:57:38;;;;;;;;;3.25;3.25;;;;;17.43;75.63;101039.56;6231802;22;45130;-93
2021/06/29 18:00:33;;;;;;;;;3.50;2.50;;;;;17.62;76.30;101083.06;6254943;22;48075;-93
2021/06/29 18:03:11;;;;;;;;;;;;;;;;;;;;;
2021/06/29 18:05:44;;;;;;;;;4.00;3.25;;;;;17.60;76.30;101089.66;6256971;22;68860;-94
2021/06/29 18:08:14;;;;;;;;;3.00;2.50;;;;;17.50;76.89;101070.59;6229808;22;45114;-95
2021/06/29 18:10:40;;;;;;;;;2.75;2.75;;;;;17.95;76.75;101151.66;6229330;22;45587;-94
2021/06/29 18:13:06;;;;;;;;;3.25;3.25;;;;;17.59;76.59;101093.34;6229448;22;45216;-93
2021/06/29 18:15:35;;;;;;;;;3.50;3.50;;;;;17.45;77.03;101070.13;6230683;22;45265;-94
2021/06/29 18:18:00;;;;;;;;;2.75;2.75;;;;;17.74;77.60;101120.97;6231470;22;45391;-93
2021/06/29 18:20:26;;;;;;;;;2.75;2.75;;;;;17.41;76.25;101070.41;6231080;22;46784;-93
2021/06/29 18:22:52;;;;;;;;;2.50;2.50;;;;;17.80;77.19;101134.03;6235876;22;45200;-94
2021/06/29 18:25:18;;;;;;;;;4.00;3.00;;;;;17.35;77.53;101064.66;6236219;22;44690;-93
2021/06/29 18:27:47;;;;;;;;;3.25;2.50;;;;;17.19;76.95;101041.59;6257765;22;45307;-94
2021/06/29 18:30:19;;;;;;;;;3.25;3.25;;;;;17.33;77.67;101072.09;6228010;22;47203;-95
2021/06/29 18:32:50;;;;;;;;;2.25;2.25;;;;;17.85;77.51;101161.59;6229646;22;45383;-93
2021/06/29 18:35:16;;;;;;;;;5.75;4.00;;;;;17.43;77.33;101101.97;6231163;22;45311;-94
2021/06/29 18:37:49;;;;;;;;;5.75;3.00;;;;;17.28;77.12;101075.22;6243210;22;45422;-93
2021/06/29 18:47:23;;;;;;;;;;;;;;;;;;;;;
2021/06/29 19:11:32;;;;;;;;;;;;;;;;;;;;;
2021/06/29 20:28:12;;;;;;;;;;;;;;;;;;;;;
2021/06/29 21:36:29;;;;;;;;;;;;;;;;;;;;;
2021/06/29 21:38:47;;;;;;;;;6.00;4.00;;;;;16.83;77.81;101143.28;6071350;23;45436;-95
2021/06/29 22:38:03;;;;;;;;;;;;;;;;;;;;;
2021/06/29 22:44:50;;;;;;;;;;;;;;;;;;;;;
2021/06/29 22:54:43;;;;;;;;;;;;;;;;;;;;;
2021/06/29 22:58:01;;;;;;;;;6.50;6.00;;;;;16.75;77.94;101142.09;5962664;23;69353;-95
2021/06/29 23:01:20;;;;;;;;;;;;;;;;;;;;;
2021/06/29 23:07:07;;;;;;;;;;;;;;;;;;;;;
2021/06/29 23:10:21;;;;;;;;;6.25;6.25;;;;;17.10;78.46;101191.63;5957195;23;70119;-95
2021/06/29 23:13:02;;;;;;;;;;;;;;;;;;;;;
2021/06/29 23:16:10;;;;;;;;;;;;;;;;;;;;;
2021/06/29 23:18:51;;;;;;;;;9.25;9.25;;;;;17.11;79.16;101198.78;6017322;23;68991;-95
2021/06/29 23:21:30;;;;;;;;;10.50;10.00;;;;;17.10;78.96;101181.63;6011120;23;45207;-94
2021/06/29 23:23:58;;;;;;;;;7.75;7.75;;;;;16.80;78.85;101144.41;6045649;23;45519;-95
2021/06/29 23:26:27;;;;;;;;;7.25;7.25;;;;;16.66;78.93;101121.19;6021366;23;45626;-95
2021/06/29 23:29:05;;;;;;;;;10.00;10.00;;;;;16.84;78.96;101156.72;6020848;23;45255;-95
2021/06/29 23:31:49;;;;;;;;;;;;;;;;;;;;;
2021/06/29 23:34:23;;;;;;;;;9.00;7.25;;;;;16.45;79.10;101089.50;6101914;23;75771;-94
2021/06/29 23:37:08;;;;;;;;;11.25;10.50;;;;;16.44;79.28;101093.19;6102839;23;45667;-95
2021/06/29 23:42:37;;;;;;;;;9.25;7.25;;;;;16.34;79.57;101068.72;6091754;23;45260;-95
2021/06/29 23:45:10;;;;;;;;;12.75;11.25;;;;;16.42;79.19;101091.59;6217847;22;46576;-95
2021/06/29 23:47:54;;;;;;;;;;;;;;;;;;;;;
2021/06/29 23:50:28;;;;;;;;;9.50;9.50;;;;;16.45;79.56;101091.34;6193629;23;68105;-96
2021/06/29 23:52:59;;;;;;;;;9.50;8.75;;;;;16.32;79.56;101067.13;6193749;23;45451;-95
2021/06/29 23:56:01;;;;;;;;;;;;;;;;;;;;;
2021/06/29 23:58:34;;;;;;;;;11.00;7.75;;;;;16.43;79.89;101082.50;6192167;23;71447;-96
